Time;durP1;ratioP1;P1;durP2;ratioP2;P2;SDS_P1;SDS_P2;PMS_P1;PMS_P2;Temp;Humidity;BMP_temperature;BMP_pressure;BME280_temperature;BME280_humidity;BME280_pressure;Samples;Min_cycle;Max_cycle;Signal;HPM_P1;HPM_P2
2024/03/10 00:00:40;;;;;;;32.03;19.30;;;;;;;6.99;100.00;100481.28;5087514;28;20032;-77
2024/03/10 00:03:06;;;;;;;;;;;;;;;6.84;100.00;100480.47;5069818;28;20485;-77
2024/03/10 00:05:33;;;;;;;33.30;19.90;;;;;;;6.58;100.00;100457.13;5086867;28;19916;-77
2024/03/10 00:07:59;;;;;;;36.40;19.65;;;;;;;6.60;100.00;100461.22;5087564;28;20028;-78
2024/03/10 00:10:25;;;;;;;36.85;20.63;;;;;;;6.51;100.00;100467.59;5068888;28;20027;-77
2024/03/10 00:12:51;;;;;;;36.97;21.52;;;;;;;6.59;100.00;100477.28;5083778;28;20493;-76
2024/03/10 00:15:17;;;;;;;37.28;23.17;;;;;;;6.64;100.00;100477.59;5086305;28;20028;-76
2024/03/10 00:17:43;;;;;;;34.20;19.83;;;;;;;6.61;100.00;100456.72;5086333;28;20039;-77
2024/03/10 00:20:09;;;;;;;31.85;19.50;;;;;;;6.62;100.00;100479.59;5087027;28;20036;-76
2024/03/10 00:22:38;;;;;;;35.22;19.98;;;;;;;6.74;100.00;100474.63;5068309;28;20028;-77
2024/03/10 00:25:08;;;;;;;34.42;19.98;;;;;;;6.68;100.00;100470.91;5086019;28;20058;-77
2024/03/10 00:27:36;;;;;;;30.63;19.20;;;;;;;6.73;100.00;100471.16;5086054;28;20051;-76
2024/03/10 00:30:04;;;;;;;31.48;19.55;;;;;;;6.60;100.00;100468.34;5086585;28;20020;-77
2024/03/10 00:32:31;;;;;;;30.08;18.15;;;;;;;6.54;100.00;100466.41;5068336;28;20036;-77
2024/03/10 00:34:57;;;;;;;35.88;19.80;;;;;;;6.42;100.00;100461.56;5088010;28;20031;-77
2024/03/10 00:37:22;;;;;;;31.52;19.88;;;;;;;6.36;100.00;100456.19;5090666;28;20031;-76
2024/03/10 00:39:48;;;;;;;30.42;19.70;;;;;;;6.49;100.00;100456.34;5090239;28;20034;-78
2024/03/10 00:42:13;;;;;;;34.90;20.45;;;;;;;6.34;100.00;100427.22;5091508;28;20024;-76
2024/03/10 00:44:38;;;;;;;33.72;19.63;;;;;;;6.58;100.00;100455.28;5094934;28;20054;-76
2024/03/10 00:47:04;;;;;;;34.15;20.73;;;;;;;6.24;100.00;100421.38;5089875;28;20032;-78
2024/03/10 00:49:30;;;;;;;37.60;21.48;;;;;;;6.42;100.00;100445.69;5089956;28;20063;-77
2024/03/10 00:51:55;;;;;;;33.58;20.50;;;;;;;6.65;100.00;100455.34;5089751;28;20123;-77
2024/03/10 00:54:21;;;;;;;30.52;20.20;;;;;;;6.59;100.00;100443.66;5085908;28;20024;-76
2024/03/10 00:56:47;;;;;;;33.15;19.60;;;;;;;6.57;100.00;100458.09;5089953;28;20062;-77
2024/03/10 00:59:13;;;;;;;37.50;20.58;;;;;;;6.59;100.00;100446.31;5089999;28;20032;-78
2024/03/10 01:01:39;;;;;;;33.15;20.48;;;;;;;6.31;100.00;100432.88;5071709;28;20323;-76
2024/03/10 01:04:05;;;;;;;33.40;19.83;;;;;;;6.01;100.00;100440.78;5071594;28;20292;-76
2024/03/10 01:06:30;;;;;;;34.55;20.80;;;;;;;5.87;100.00;100411.63;5071031;28;20797;-77
2024/03/10 01:08:57;;;;;;;37.22;20.58;;;;;;;6.02;100.00;100429.19;5071630;28;20089;-78
2024/03/10 01:11:22;;;;;;;35.90;20.48;;;;;;;6.04;100.00;100429.81;5089077;28;20480;-76
2024/03/10 01:13:50;;;;;;;36.30;20.75;;;;;;;5.89;100.00;100413.06;5089810;28;20103;-75
2024/03/10 01:16:15;;;;;;;36.08;20.90;;;;;;;6.10;100.00;100414.22;5089269;28;20020;-76
2024/03/10 01:18:41;;;;;;;35.10;21.80;;;;;;;5.91;100.00;100416.38;5071421;28;20081;-77
2024/03/10 01:21:06;;;;;;;34.10;20.80;;;;;;;5.91;100.00;100439.38;5089176;28;20089;-76
2024/03/10 01:23:32;;;;;;;35.75;21.67;;;;;;;5.90;100.00;100425.28;5089299;28;20103;-77
2024/03/10 01:25:58;;;;;;;37.22;20.85;;;;;;;5.81;100.00;100426.38;5105085;28;20481;-77
2024/03/10 01:28:23;;;;;;;39.28;21.98;;;;;;;5.72;100.00;100419.50;5104398;28;20130;-77
2024/03/10 01:30:48;;;;;;;33.80;20.67;;;;;;;5.49;100.00;100407.13;5089546;28;20024;-77
2024/03/10 01:33:14;;;;;;;31.23;19.42;;;;;;;5.44;100.00;100385.69;5089287;28;20032;-76
2024/03/10 01:35:42;;;;;;;32.08;19.45;;;;;;;5.75;100.00;100427.09;5088694;28;20039;-77
2024/03/10 01:38:07;;;;;;;35.13;19.27;;;;;;;5.93;100.00;100422.31;5099363;28;20024;-76
2024/03/10 01:40:33;;;;;;;33.10;19.17;;;;;;;6.14;100.00;100413.69;5088981;28;20093;-77
2024/03/10 01:42:58;;;;;;;32.78;18.48;;;;;;;6.23;100.00;100420.56;5089441;28;20028;-77
2024/03/10 01:45:23;;;;;;;34.22;19.85;;;;;;;6.46;100.00;100434.69;5069349;28;20027;-77
2024/03/10 01:47:50;;;;;;;32.38;18.35;;;;;;;6.71;100.00;100448.50;5070101;28;20039;-77
2024/03/10 01:50:17;;;;;;;31.23;19.40;;;;;;;6.70;100.00;100463.59;5088959;28;20028;-76
2024/03/10 01:52:43;;;;;;;31.92;17.73;;;;;;;6.71;100.00;100454.63;5070944;28;20060;-77
2024/03/10 01:55:11;;;;;;;32.88;19.48;;;;;;;6.66;100.00;100446.41;5088476;28;20020;-78
2024/03/10 01:57:38;;;;;;;33.63;18.80;;;;;;;6.10;100.00;100414.22;5063245;28;20065;-77
2024/03/10 02:00:06;;;;;;;29.50;17.95;;;;;;;6.24;100.00;100442.56;5088920;28;20028;-77
2024/03/10 02:02:32;;;;;;;30.10;18.83;;;;;;;6.35;100.00;100430.69;5070707;28;20040;-77
2024/03/10 02:05:00;;;;;;;30.23;18.55;;;;;;;6.11;100.00;100426.44;5088692;28;20039;-76
2024/03/10 02:07:26;;;;;;;32.33;19.58;;;;;;;6.31;100.00;100440.81;5088349;28;20028;-76
2024/03/10 02:09:52;;;;;;;32.97;19.70;;;;;;;6.23;100.00;100425.84;5088666;28;20035;-77
2024/03/10 02:12:20;;;;;;;37.80;20.00;;;;;;;6.27;100.00;100431.59;5070380;28;20094;-76
2024/03/10 02:15:03;;;;;;;37.25;20.17;;;;;;;6.23;100.00;100446.19;5088421;28;20115;-76
2024/03/10 02:17:28;;;;;;;32.15;18.30;;;;;;;5.99;100.00;100408.38;5087897;28;20157;-76
2024/03/10 02:19:57;;;;;;;30.20;17.73;;;;;;;6.34;100.00;100443.13;5088422;28;20111;-77
2024/03/10 02:22:28;;;;;;;34.47;18.65;;;;;;;6.12;100.00;100406.94;5069875;28;20036;-76
2024/03/10 02:24:59;;;;;;;30.85;18.60;;;;;;;6.07;100.00;100436.59;5088191;28;20028;-77
2024/03/10 02:27:26;;;;;;;33.03;19.45;;;;;;;6.31;100.00;100443.47;5087563;28;20036;-76
2024/03/10 02:30:18;;;;;;;32.22;19.45;;;;;;;6.12;100.00;100444.00;5088124;28;20099;-76
2024/03/10 02:49:29;;;;;;;34.08;19.60;;;;;;;6.11;100.00;100429.09;5043213;28;20051;-76
2024/03/10 02:51:55;;;;;;;34.42;20.27;;;;;;;6.01;100.00;100432.03;5078943;28;20028;-77
2024/03/10 02:54:20;;;;;;;34.55;20.10;;;;;;;5.66;100.00;100401.69;5087274;28;20149;-77
2024/03/10 02:56:46;;;;;;;35.38;20.88;;;;;;;5.95;100.00;100428.28;5086542;28;20422;-76
2024/03/10 02:59:11;;;;;;;35.65;21.23;;;;;;;5.88;100.00;100422.00;5087485;28;20036;-76
2024/03/10 03:01:40;;;;;;;33.97;20.30;;;;;;;6.07;100.00;100414.56;5087388;28;20069;-78
2024/03/10 03:04:06;;;;;;;34.67;20.65;;;;;;;5.73;100.00;100397.34;5086890;28;20486;-78
2024/03/10 03:06:31;;;;;;;31.98;19.80;;;;;;;5.70;100.00;100387.94;5087202;28;20142;-77
2024/03/10 03:08:57;;;;;;;34.88;19.15;;;;;;;5.51;100.00;100401.66;5087612;28;20059;-78
2024/03/10 03:11:22;;;;;;;31.85;18.92;;;;;;;5.80;100.00;100404.41;5087140;28;20032;-76
2024/03/10 03:13:48;;;;;;;37.20;20.77;;;;;;;5.68;100.00;100386.47;5069185;28;20408;-77
2024/03/10 03:16:14;;;;;;;32.88;19.95;;;;;;;5.87;100.00;100415.06;5086961;28;20032;-77
2024/03/10 03:18:40;;;;;;;32.05;18.50;;;;;;;5.64;100.00;100409.81;5087232;28;20492;-77
2024/03/10 03:21:05;;;;;;;34.88;19.27;;;;;;;5.77;100.00;100415.31;5068903;28;20059;-77
2024/03/10 03:23:31;;;;;;;33.92;19.23;;;;;;;5.49;100.00;100408.94;5086809;28;20692;-78
2024/03/10 03:25:56;;;;;;;33.35;19.90;;;;;;;5.72;100.00;100411.56;5086450;28;20066;-77
2024/03/10 03:28:22;;;;;;;32.70;19.77;;;;;;;5.58;100.00;100418.47;5068416;28;20052;-78
2024/03/10 03:30:48;;;;;;;32.97;19.38;;;;;;;5.66;100.00;100417.56;5087181;28;20107;-77
2024/03/10 03:33:13;;;;;;;35.58;21.50;;;;;;;5.71;100.00;100415.22;5086834;28;20050;-77
2024/03/10 03:35:39;;;;;;;41.10;22.10;;;;;;;5.35;100.00;100410.53;5068717;28;20032;-79
2024/03/10 03:38:05;;;;;;;36.85;21.00;;;;;;;5.56;100.00;100392.19;5085887;28;20028;-77
2024/03/10 03:40:31;;;;;;;39.15;22.10;;;;;;;5.63;100.00;100414.28;5086562;28;20424;-77
2024/03/10 03:42:56;;;;;;;36.80;20.98;;;;;;;5.44;100.00;100381.19;5086653;28;20043;-77
2024/03/10 03:45:24;;;;;;;36.20;19.95;;;;;;;5.46;100.00;100394.25;5068439;28;20032;-77
2024/03/10 03:47:50;;;;;;;35.00;20.25;;;;;;;5.64;100.00;100415.94;5067798;28;20024;-77
2024/03/10 03:50:16;;;;;;;35.65;20.25;;;;;;;5.55;100.00;100402.94;5087016;28;20032;-77
2024/03/10 03:52:42;;;;;;;35.42;19.73;;;;;;;5.33;100.00;100394.00;5068575;28;20071;-77
2024/03/10 03:55:07;;;;;;;33.20;20.40;;;;;;;5.24;100.00;100366.81;5086432;28;20063;-77
2024/03/10 03:57:33;;;;;;;37.10;20.00;;;;;;;5.63;100.00;100411.63;5086311;28;20023;-76
2024/03/10 03:59:59;;;;;;;34.15;19.98;;;;;;;5.70;100.00;100402.97;5068143;28;20028;-77
2024/03/10 04:02:25;;;;;;;37.97;21.45;;;;;;;5.67;100.00;100406.00;5086325;28;20104;-77
2024/03/10 04:04:52;;;;;;;35.38;19.35;;;;;;;5.50;100.00;100414.06;5086439;28;20028;-77
2024/03/10 04:07:18;;;;;;;34.70;19.45;;;;;;;5.51;100.00;100401.66;5086128;28;20027;-78
2024/03/10 04:09:43;;;;;;;35.38;20.08;;;;;;;5.50;100.00;100415.91;5085263;28;20032;-77
2024/03/10 04:12:08;;;;;;;34.92;21.08;;;;;;;5.60;100.00;100393.47;5086181;28;20110;-77
2024/03/10 04:14:34;;;;;;;38.05;22.25;;;;;;;5.49;100.00;100390.44;5086339;28;20031;-78
2024/03/10 04:16:59;;;;;;;37.90;20.88;;;;;;;5.37;100.00;100392.66;5067988;28;20068;-78
2024/03/10 04:19:25;;;;;;;39.35;22.67;;;;;;;5.50;100.00;100397.38;5067975;28;20036;-77
2024/03/10 04:21:50;;;;;;;37.75;20.30;;;;;;;5.18;100.00;100399.25;5068246;28;20405;-77
2024/03/10 04:24:16;;;;;;;37.20;21.95;;;;;;;5.00;100.00;100397.69;5086312;28;20038;-77
2024/03/10 04:26:42;;;;;;;39.33;21.38;;;;;;;4.86;100.00;100372.00;5085812;28;20024;-77
2024/03/10 04:29:13;;;;;;;41.35;22.20;;;;;;;4.80;100.00;100386.75;5086047;28;20048;-77
2024/03/10 04:31:39;;;;;;;37.28;20.20;;;;;;;4.96;100.00;100395.56;5067998;28;20026;-77
2024/03/10 04:34:11;;;;;;;60.88;38.97;;;;;;;5.15;100.00;100400.44;5068179;28;20032;-77
2024/03/10 04:36:36;;;;;;;60.42;42.25;;;;;;;5.16;100.00;100407.34;5085812;28;20077;-78
2024/03/10 04:39:02;;;;;;;49.78;35.35;;;;;;;5.01;100.00;100403.81;5086069;28;20467;-78
2024/03/10 04:41:28;;;;;;;51.70;36.60;;;;;;;5.06;100.00;100401.47;5086058;28;20410;-76
2024/03/10 04:43:54;;;;;;;50.72;39.40;;;;;;;4.80;100.00;100391.19;5086081;28;20115;-77
2024/03/10 04:46:19;;;;;;;41.10;23.65;;;;;;;4.88;100.00;100399.06;5085783;28;20058;-76
2024/03/10 04:48:50;;;;;;;40.83;23.38;;;;;;;4.91;100.00;100403.22;5085891;28;20508;-76
2024/03/10 04:51:16;;;;;;;48.13;30.35;;;;;;;4.99;100.00;100400.53;5085645;28;20028;-77
2024/03/10 04:53:43;;;;;;;40.20;24.95;;;;;;;4.92;100.00;100383.69;5101409;28;20032;-77
2024/03/10 04:56:12;;;;;;;37.08;19.55;;;;;;;4.97;100.00;100381.38;5085703;28;20028;-77
2024/03/10 04:58:41;;;;;;;39.20;23.95;;;;;;;5.20;100.00;100395.41;5085915;28;20030;-76
2024/03/10 05:01:08;;;;;;;41.92;23.40;;;;;;;5.21;100.00;100412.09;5085515;28;20047;-78
2024/03/10 05:03:37;;;;;;;39.10;22.63;;;;;;;5.13;100.00;100394.50;5085566;28;20027;-77
2024/03/10 05:06:04;;;;;;;42.28;25.15;;;;;;;5.26;100.00;100417.69;5085602;28;20023;-78
2024/03/10 05:08:30;;;;;;;39.65;23.20;;;;;;;5.06;100.00;100404.09;5085048;28;20039;-78
2024/03/10 05:10:55;;;;;;;41.58;23.42;;;;;;;5.08;100.00;100412.69;5085438;28;20020;-78
2024/03/10 05:13:20;;;;;;;42.88;27.42;;;;;;;5.26;100.00;100414.25;5084946;28;20043;-78
2024/03/10 05:15:47;;;;;;;41.15;24.90;;;;;;;5.20;100.00;100429.78;5085247;28;20459;-77
2024/03/10 05:18:13;;;;;;;49.88;28.67;;;;;;;5.19;100.00;100422.03;5085517;28;20042;-79
2024/03/10 05:20:38;;;;;;;67.80;39.05;;;;;;;5.07;100.00;100391.69;5087201;28;20021;-78
2024/03/10 05:23:03;;;;;;;50.60;30.20;;;;;;;4.93;100.00;100411.78;5088956;28;20035;-77
2024/03/10 05:25:29;;;;;;;39.67;24.23;;;;;;;4.77;100.00;100423.25;5088325;28;20507;-77
2024/03/10 05:27:54;;;;;;;41.83;23.85;;;;;;;4.76;100.00;100414.50;5088329;28;20048;-77
2024/03/10 05:30:20;;;;;;;44.80;25.55;;;;;;;4.81;100.00;100401.59;5088754;28;20694;-77
2024/03/10 05:32:46;;;;;;;39.20;23.10;;;;;;;4.80;100.00;100429.03;5088193;28;20473;-77
2024/03/10 05:35:11;;;;;;;40.85;23.65;;;;;;;4.56;100.00;100387.69;5088266;28;20032;-77
2024/03/10 05:37:37;;;;;;;45.22;27.33;;;;;;;4.92;100.00;100404.84;5070948;28;20038;-78
2024/03/10 05:40:06;;;;;;;42.63;23.67;;;;;;;5.08;100.00;100410.03;5070540;28;20140;-77
2024/03/10 05:42:31;;;;;;;42.63;24.77;;;;;;;5.09;100.00;100417.00;5089017;28;20036;-76
2024/03/10 05:45:02;;;;;;;46.33;28.90;;;;;;;5.38;100.00;100442.75;5089295;28;20050;-77
2024/03/10 05:47:27;;;;;;;42.00;24.92;;;;;;;5.40;100.00;100451.31;5088669;28;20047;-77
2024/03/10 05:49:55;;;;;;;41.15;24.60;;;;;;;5.27;100.00;100413.22;5089101;28;20497;-78
2024/03/10 05:52:20;;;;;;;45.65;26.33;;;;;;;5.57;100.00;100422.91;5070262;28;20038;-77
2024/03/10 05:54:45;;;;;;;40.42;23.92;;;;;;;5.70;100.00;100450.59;5089469;28;20020;-77
2024/03/10 05:57:11;;;;;;;40.40;24.55;;;;;;;5.56;100.00;100431.06;5088028;28;20027;-77
2024/03/10 05:59:37;;;;;;;45.17;28.33;;;;;;;5.69;100.00;100438.41;5072108;28;20417;-78
2024/03/10 06:02:03;;;;;;;47.00;28.70;;;;;;;5.81;100.00;100445.72;5087986;28;20039;-77
2024/03/10 06:04:30;;;;;;;39.03;22.00;;;;;;;5.58;100.00;100443.09;5088346;28;20046;-77
2024/03/10 06:06:56;;;;;;;42.38;24.08;;;;;;;5.54;100.00;100447.09;5087826;28;20036;-78
2024/03/10 06:09:21;;;;;;;38.70;21.85;;;;;;;5.69;100.00;100459.56;5087942;28;20032;-77
2024/03/10 06:11:46;;;;;;;50.83;27.85;;;;;;;5.96;100.00;100451.06;5088122;28;20409;-77
2024/03/10 06:14:12;;;;;;;43.78;29.33;;;;;;;5.92;100.00;100439.16;5073022;28;20481;-77
2024/03/10 06:16:37;;;;;;;36.22;22.60;;;;;;;5.78;100.00;100458.47;5087705;28;20115;-77
2024/03/10 06:26:57;;;;;;;38.22;23.17;;;;;;;6.01;100.00;100469.09;5085793;28;20030;-78
2024/03/10 06:29:24;;;;;;;52.53;29.75;;;;;;;6.26;100.00;100471.50;5086829;28;20051;-77
2024/03/10 06:31:50;;;;;;;54.20;32.20;;;;;;;6.24;100.00;100464.56;5087424;28;20016;-77
2024/03/10 06:34:17;;;;;;;49.53;29.63;;;;;;;6.36;100.00;100457.00;5087438;28;20036;-77
2024/03/10 06:36:43;;;;;;;49.58;29.45;;;;;;;6.64;100.00;100474.94;5087722;28;20020;-78
2024/03/10 06:39:09;;;;;;;54.60;30.10;;;;;;;6.58;100.00;100449.16;5073949;28;20066;-77
2024/03/10 06:41:34;;;;;;;55.92;30.27;;;;;;;6.69;100.00;100472.53;5087623;28;20028;-77
2024/03/10 06:44:01;;;;;;;38.75;21.67;;;;;;;6.95;100.00;100481.84;5087339;28;20028;-77
2024/03/10 06:46:28;;;;;;;43.88;24.58;;;;;;;7.09;100.00;100488.97;5084646;28;20024;-76
2024/03/10 06:48:53;;;;;;;43.42;24.40;;;;;;;6.93;100.00;100462.66;5086912;28;20034;-77
2024/03/10 06:51:22;;;;;;;40.60;21.98;;;;;;;7.07;100.00;100469.75;5087263;28;20401;-78
2024/03/10 06:53:47;;;;;;;49.03;26.60;;;;;;;7.21;100.00;100498.09;5069038;28;20048;-77
2024/03/10 06:56:14;;;;;;;45.72;24.35;;;;;;;7.31;100.00;100475.72;5086418;28;20042;-77
2024/03/10 06:58:43;;;;;;;32.75;20.13;;;;;;;7.45;100.00;100498.75;5087085;28;20542;-78
2024/03/10 07:01:10;;;;;;;47.35;24.75;;;;;;;7.91;100.00;100508.22;5087739;28;20052;-77
2024/03/10 07:03:35;;;;;;;46.33;24.70;;;;;;;7.97;100.00;100504.78;5087278;28;20032;-77
2024/03/10 07:06:01;;;;;;;45.75;24.90;;;;;;;7.91;100.00;100509.03;5087139;28;20102;-78
2024/03/10 07:08:27;;;;;;;43.38;24.70;;;;;;;8.04;100.00;100509.13;5087120;28;20055;-77
2024/03/10 07:10:52;;;;;;;62.55;32.38;;;;;;;8.32;100.00;100511.00;5083883;28;20030;-78
2024/03/10 07:13:21;;;;;;;43.08;25.80;;;;;;;8.20;100.00;100515.19;5074220;28;20035;-78
2024/03/10 07:15:46;;;;;;;43.35;25.33;;;;;;;8.65;100.00;100511.25;5086502;28;20404;-77
2024/03/10 07:18:12;;;;;;;44.45;24.23;;;;;;;8.85;100.00;100516.69;5076488;28;20048;-76
2024/03/10 07:20:39;;;;;;;34.78;19.38;;;;;;;8.34;100.00;100487.72;5079949;28;20021;-78
2024/03/10 07:23:05;;;;;;;32.65;19.70;;;;;;;8.11;100.00;100518.97;5077412;28;20542;-78
2024/03/10 07:25:30;;;;;;;36.58;21.10;;;;;;;8.33;100.00;100512.63;5076720;28;20031;-77
2024/03/10 07:27:56;;;;;;;102.60;41.35;;;;;;;8.35;100.00;100505.28;5082849;28;20135;-76
2024/03/10 07:30:22;;;;;;;49.45;28.65;;;;;;;8.89;100.00;100510.97;5081133;28;20024;-77
2024/03/10 07:32:47;;;;;;;51.10;27.90;;;;;;;9.09;100.00;100506.56;5076517;28;20486;-77
2024/03/10 07:35:13;;;;;;;30.33;19.42;;;;;;;9.31;100.00;100511.78;5086844;28;20036;-77
2024/03/10 07:37:43;;;;;;;34.90;19.77;;;;;;;8.35;100.00;100492.00;5086677;28;20070;-78
2024/03/10 07:40:16;;;;;;;31.80;19.08;;;;;;;8.90;100.00;100472.72;5085024;28;20432;-77
2024/03/10 07:42:48;;;;;;;53.00;32.17;;;;;;;9.00;100.00;100489.13;5072308;28;20060;-78
2024/03/10 07:45:17;;;;;;;30.95;18.95;;;;;;;8.84;100.00;100476.97;5075325;28;20218;-78
2024/03/10 07:47:44;;;;;;;33.22;20.55;;;;;;;9.22;100.00;100490.66;5075074;28;20039;-78
2024/03/10 07:50:17;;;;;;;30.05;19.17;;;;;;;10.04;100.00;100504.75;5084213;28;20032;-78
2024/03/10 07:52:45;;;;;;;33.20;18.27;;;;;;;10.29;100.00;100498.78;5074156;28;20032;-77
2024/03/10 07:55:10;;;;;;;31.25;19.55;;;;;;;9.61;100.00;100481.13;5086104;28;20028;-78
2024/03/10 07:57:39;;;;;;;33.72;17.83;;;;;;;9.32;100.00;100479.63;5101097;28;20043;-77
2024/03/10 08:00:11;;;;;;;30.23;17.83;;;;;;;9.30;100.00;100496.84;5086697;28;20051;-78
2024/03/10 08:02:40;;;;;;;37.38;27.05;;;;;;;9.78;100.00;100488.72;5068389;28;20039;-76
2024/03/10 08:05:12;;;;;;;27.13;17.75;;;;;;;10.21;100.00;100483.00;5086398;28;20032;-77
2024/03/10 08:07:41;;;;;;;28.80;17.58;;;;;;;9.84;100.00;100494.06;5086472;28;20039;-77
2024/03/10 08:10:12;;;;;;;31.15;18.15;;;;;;;9.71;100.00;100498.56;5086035;28;20032;-77
2024/03/10 08:12:39;;;;;;;28.30;17.83;;;;;;;9.92;100.00;100498.38;5047655;28;20509;-77
2024/03/10 08:15:09;;;;;;;29.13;17.50;;;;;;;9.86;100.00;100502.66;5083509;28;20503;-77
2024/03/10 08:17:35;;;;;;;29.27;17.85;;;;;;;10.34;100.00;100499.03;5086468;28;20036;-77
2024/03/10 08:20:01;;;;;;;27.55;17.98;;;;;;;10.82;100.00;100501.38;5085996;28;20028;-77
2024/03/10 08:22:26;;;;;;;29.52;18.10;;;;;;;10.95;100.00;100505.03;5086200;28;20416;-75
2024/03/10 08:24:52;;;;;;;29.35;17.90;;;;;;;11.02;100.00;100504.00;5068250;28;20407;-78
2024/03/10 08:27:17;;;;;;;27.25;18.40;;;;;;;11.39;100.00;100506.91;5086216;28;20059;-77
2024/03/10 08:29:42;;;;;;;29.10;18.88;;;;;;;11.28;100.00;100504.94;5085476;28;20066;-77
2024/03/10 08:32:08;;;;;;;28.67;18.23;;;;;;;11.62;100.00;100500.22;5080966;28;20028;-77
2024/03/10 08:34:33;;;;;;;30.17;19.60;;;;;;;11.91;100.00;100482.81;5064124;28;20404;-77
2024/03/10 08:36:59;;;;;;;35.78;26.02;;;;;;;11.89;100.00;100498.25;5086857;28;20111;-78
2024/03/10 08:39:25;;;;;;;27.92;19.90;;;;;;;11.85;100.00;100505.81;5067623;28;20028;-76
2024/03/10 08:41:51;;;;;;;34.30;24.27;;;;;;;11.82;100.00;100492.06;5084826;28;20115;-75
2024/03/10 08:44:16;;;;;;;30.13;18.73;;;;;;;11.83;100.00;100485.72;5079751;28;20508;-76
2024/03/10 08:46:44;;;;;;;43.50;33.83;;;;;;;12.31;100.00;100509.19;5085325;28;20044;-77
2024/03/10 08:49:11;;;;;;;31.38;22.67;;;;;;;12.23;100.00;100493.44;5085888;28;20031;-77
2024/03/10 08:51:37;;;;;;;23.77;16.00;;;;;;;12.29;100.00;100505.91;5085482;28;20040;-75
2024/03/10 08:54:07;;;;;;;26.70;15.82;;;;;;;11.76;100.00;100491.06;5077920;28;20516;-76
2024/03/10 08:56:36;;;;;;;27.10;17.27;;;;;;;11.82;100.00;100468.03;5081351;28;20028;-76
2024/03/10 08:59:01;;;;;;;26.23;17.85;;;;;;;12.36;100.00;100479.94;5087000;28;20032;-76
2024/03/10 09:01:27;;;;;;;26.15;16.42;;;;;;;12.29;100.00;100478.38;5087061;28;20408;-77
2024/03/10 09:03:55;;;;;;;22.17;14.98;;;;;;;12.68;100.00;100482.50;5080933;28;20538;-76
2024/03/10 09:06:24;;;;;;;;;;;;;;;12.83;100.00;100504.38;5095146;28;20081;-77
2024/03/10 09:08:49;;;;;;;23.73;16.17;;;;;;;12.72;100.00;100488.22;5087972;28;19920;-76
2024/03/10 09:11:15;;;;;;;47.20;37.70;;;;;;;13.29;94.94;100502.19;5069487;28;20645;-77
2024/03/10 09:13:41;;;;;;;22.70;15.25;;;;;;;12.81;94.11;100482.38;5088963;28;20028;-76
2024/03/10 09:16:09;;;;;;;24.67;15.80;;;;;;;13.08;96.34;100492.75;5088268;28;20628;-76
2024/03/10 09:18:35;;;;;;;21.63;14.48;;;;;;;12.60;100.00;100469.41;5088886;28;20036;-76
2024/03/10 09:21:02;;;;;;;18.75;12.60;;;;;;;12.22;94.75;100478.44;5086905;28;20105;-77
2024/03/10 09:23:27;;;;;;;22.02;13.75;;;;;;;12.31;100.00;100458.38;5088313;28;20107;-77
2024/03/10 09:25:54;;;;;;;19.60;12.88;;;;;;;12.28;94.12;100493.59;5070255;28;20119;-76
2024/03/10 09:28:20;;;;;;;21.33;14.43;;;;;;;12.98;96.59;100479.09;5088533;28;20060;-77
2024/03/10 09:30:49;;;;;;;32.42;21.95;;;;;;;13.34;85.33;100485.44;5088767;28;20032;-78
2024/03/10 09:33:16;;;;;;;20.33;15.10;;;;;;;12.94;96.84;100459.16;5089393;28;20111;-77
2024/03/10 09:35:45;;;;;;;20.10;13.43;;;;;;;12.43;97.45;100475.34;5089483;28;20038;-77
2024/03/10 09:38:12;;;;;;;18.63;12.35;;;;;;;12.06;98.10;100469.09;5088708;28;20065;-77
2024/03/10 09:40:39;;;;;;;17.80;12.77;;;;;;;11.98;100.00;100462.16;5088949;28;20528;-77
2024/03/10 09:43:06;;;;;;;19.55;13.25;;;;;;;12.61;93.98;100465.72;5089426;28;20058;-77
2024/03/10 09:45:47;;;;;;;20.65;12.98;;;;;;;12.46;94.50;100469.56;5089279;28;20248;-77
2024/03/10 09:48:14;;;;;;;22.20;12.00;;;;;;;12.04;94.58;100463.97;5088854;28;20042;-77
2024/03/10 09:50:40;;;;;;;17.27;11.57;;;;;;;12.86;89.75;100434.31;5088435;28;20461;-77
2024/03/10 09:53:08;;;;;;;14.63;9.70;;;;;;;12.85;80.44;100459.47;5070686;28;20035;-76
2024/03/10 09:55:34;;;;;;;21.53;15.10;;;;;;;13.43;81.79;100463.47;5088699;28;20081;-76
2024/03/10 09:58:13;;;;;;;14.40;10.35;;;;;;;13.26;83.20;100457.91;5088752;28;20032;-77
2024/03/10 10:00:40;;;;;;;30.38;20.88;;;;;;;13.55;88.42;100460.03;5088431;28;20028;-78
2024/03/10 10:03:09;;;;;;;19.75;13.45;;;;;;;14.04;85.09;100458.81;5088723;28;20020;-76
2024/03/10 10:05:42;;;;;;;19.38;13.55;;;;;;;13.90;85.53;100460.09;5088707;28;20040;-76
2024/03/10 10:08:12;;;;;;;56.30;46.08;;;;;;;13.78;82.73;100460.06;5087022;28;20182;-76
2024/03/10 10:10:51;;;;;;;29.55;23.50;;;;;;;13.94;86.08;100426.41;5088199;28;20117;-75
2024/03/10 10:13:22;;;;;;;21.35;13.75;;;;;;;13.91;84.27;100442.94;5070452;28;20056;-76
2024/03/10 10:15:48;;;;;;;20.67;12.90;;;;;;;14.14;85.00;100442.16;5070206;28;20482;-77
2024/03/10 10:18:16;;;;;;;18.13;13.57;;;;;;;14.29;85.32;100444.38;5088416;28;20031;-76
2024/03/10 10:20:53;;;;;;;17.67;11.02;;;;;;;14.15;84.90;100449.13;5088044;28;20039;-76
2024/03/10 10:23:23;;;;;;;20.50;12.20;;;;;;;14.21;84.44;100429.44;5088213;28;20024;-77
2024/03/10 10:26:09;;;;;;;15.55;10.77;;;;;;;14.05;81.14;100439.00;5088041;28;20427;-77
2024/03/10 10:28:37;;;;;;;16.92;11.07;;;;;;;14.13;82.38;100439.69;5087816;28;20083;-77
2024/03/10 10:31:13;;;;;;;17.42;11.80;;;;;;;14.19;80.59;100428.03;5088059;28;20035;-77
2024/03/10 10:33:39;;;;;;;18.63;12.13;;;;;;;14.13;81.37;100407.53;5088747;28;20028;-77
2024/03/10 10:36:05;;;;;;;15.88;11.50;;;;;;;14.36;81.32;100423.59;5088145;28;20020;-77
2024/03/10 10:38:39;;;;;;;19.70;11.38;;;;;;;14.40;78.80;100411.31;5070050;28;20032;-77
2024/03/10 10:41:07;;;;;;;17.73;11.50;;;;;;;14.69;77.56;100395.34;5087877;28;20493;-78
2024/03/10 10:43:37;;;;;;;19.50;12.80;;;;;;;14.83;74.45;100423.53;5069585;28;20115;-77
2024/03/10 10:46:04;;;;;;;17.00;11.40;;;;;;;15.14;76.29;100417.91;5088352;28;20073;-77
2024/03/10 10:48:33;;;;;;;17.23;12.57;;;;;;;15.02;74.49;100405.38;5087430;28;20104;-77
2024/03/10 10:50:59;;;;;;;18.38;13.10;;;;;;;15.50;68.94;100414.00;5069608;28;20115;-77
2024/03/10 10:53:25;;;;;;;18.92;12.73;;;;;;;16.41;62.70;100415.69;5088369;28;20033;-77
2024/03/10 10:55:51;;;;;;;15.70;10.48;;;;;;;16.12;65.64;100406.94;5087379;28;20032;-77
2024/03/10 10:58:19;;;;;;;16.05;12.45;;;;;;;16.12;64.74;100406.94;5087416;28;20035;-76
2024/03/10 11:00:53;;;;;;;14.80;10.35;;;;;;;16.23;65.49;100384.50;5063413;28;20039;-76
2024/03/10 11:03:24;;;;;;;16.17;10.77;;;;;;;15.73;63.65;100404.19;5079421;28;20032;-77
2024/03/10 11:06:02;;;;;;;16.40;11.13;;;;;;;15.89;66.94;100406.06;5084826;28;20039;-76
2024/03/10 11:08:32;;;;;;;14.73;10.75;;;;;;;16.56;62.88;100380.06;5078244;28;20027;-76
2024/03/10 11:10:58;;;;;;;15.27;10.07;;;;;;;16.75;60.41;100365.19;5083337;28;20474;-77
2024/03/10 11:13:23;;;;;;;13.73;9.98;;;;;;;16.04;63.46;100379.41;5072952;28;20058;-77
2024/03/10 11:16:11;;;;;;;17.73;11.02;;;;;;;15.56;64.83;100375.41;5080136;28;20040;-77
2024/03/10 11:18:38;;;;;;;14.07;9.43;;;;;;;15.59;67.98;100377.63;5077983;28;20055;-76
2024/03/10 11:21:17;;;;;;;13.05;8.98;;;;;;;16.10;64.81;100344.47;5082657;28;20029;-77
2024/03/10 11:23:47;;;;;;;13.32;9.32;;;;;;;16.23;64.41;100352.22;5061482;28;20120;-77
2024/03/10 11:26:20;;;;;;;15.38;10.60;;;;;;;17.07;58.60;100364.50;5080474;28;20481;-76
2024/03/10 11:28:49;;;;;;;12.82;9.30;;;;;;;16.83;63.10;100351.31;5078079;28;20048;-76
2024/03/10 11:31:38;;;;;;;13.32;9.05;;;;;;;17.00;57.22;100350.41;5064985;28;20030;-76
2024/03/10 11:34:05;;;;;;;14.38;9.45;;;;;;;16.78;58.38;100324.31;5061808;28;20145;-76